Time;durP1;ratioP1;P1;durP2;ratioP2;P2;SDS_P1;SDS_P2;PMS_P1;PMS_P2;Temp;Humidity;BMP_temperature;BMP_pressure;BME280_temperature;BME280_humidity;BME280_pressure;Samples;Min_cycle;Max_cycle;Signal;HPM_P1;HPM_P2
2022/09/24 00:01:38;;;;;;;10.03;6.80;;;11.50;99.90;;;;;;5260915;28;20178;-50
2022/09/24 00:04:11;;;;;;;5.33;4.93;;;11.40;99.90;;;;;;5223173;28;20192;-51
2022/09/24 00:06:44;;;;;;;10.03;7.10;;;11.40;99.90;;;;;;5253180;28;20697;-50
2022/09/24 00:09:18;;;;;;;8.67;6.77;;;11.40;99.90;;;;;;5256561;28;21160;-55
2022/09/24 00:11:51;;;;;;;6.17;5.57;;;11.40;99.90;;;;;;5246055;28;21040;-49
2022/09/24 00:14:21;;;;;;;7.03;4.73;;;11.40;99.90;;;;;;5262255;28;20961;-50
2022/09/24 00:16:52;;;;;;;5.97;5.40;;;11.30;99.90;;;;;;5264670;28;20564;-50
2022/09/24 00:19:22;;;;;;;5.40;4.97;;;11.30;99.90;;;;;;5268424;28;20197;-50
2022/09/24 00:21:53;;;;;;;5.67;5.10;;;11.30;99.90;;;;;;5239379;28;20546;-50
2022/09/24 00:27:13;;;;;;;6.97;4.83;;;11.20;99.90;;;;;;5261393;28;20187;-50
2022/09/24 00:29:43;;;;;;;6.40;5.77;;;11.20;99.90;;;;;;5229930;28;20846;-50
2022/09/24 00:32:14;;;;;;;7.23;6.10;;;11.10;99.90;;;;;;5235349;28;20194;-52
2022/09/24 00:34:46;;;;;;;5.83;5.10;;;11.10;99.90;;;;;;5262730;28;20194;-50
2022/09/24 00:37:20;;;;;;;8.67;5.80;;;11.10;99.90;;;;;;5268107;28;20772;-51
2022/09/24 00:39:50;;;;;;;4.90;4.30;;;11.00;99.90;;;;;;5262509;28;20444;-51
2022/09/24 00:42:21;;;;;;;7.90;5.43;;;11.00;99.90;;;;;;5264319;28;20492;-50
2022/09/24 00:44:54;;;;;;;6.13;5.43;;;11.00;99.90;;;;;;5238471;28;20577;-51
2022/09/24 00:47:38;;;;;;;7.43;5.80;;;11.00;99.90;;;;;;5255700;28;20550;-50
2022/09/24 00:50:32;;;;;;;5.80;5.20;;;11.00;99.90;;;;;;5238525;28;20478;-51
2022/09/24 00:53:32;;;;;;;5.70;5.20;;;10.90;99.90;;;;;;5260970;28;20827;-53
2022/09/24 00:56:04;;;;;;;5.43;5.00;;;10.90;99.90;;;;;;5243344;28;20562;-50
2022/09/24 00:58:35;;;;;;;6.30;5.63;;;10.90;99.90;;;;;;5248717;28;20452;-50
2022/09/24 01:01:07;;;;;;;5.67;5.17;;;10.90;99.90;;;;;;5244193;28;20434;-51
2022/09/24 01:03:40;;;;;;;6.97;5.77;;;10.90;99.90;;;;;;5250895;28;20439;-49
2022/09/24 01:06:10;;;;;;;9.20;5.47;;;10.90;99.90;;;;;;5251607;28;20489;-50
2022/09/24 01:08:42;;;;;;;8.57;5.50;;;10.90;99.90;;;;;;5249912;28;20995;-51
2022/09/24 01:11:39;;;;;;;5.80;5.00;;;10.90;99.90;;;;;;5265244;28;20189;-52
2022/09/24 01:14:33;;;;;;;5.60;5.10;;;10.90;99.90;;;;;;5249820;28;20432;-50
2022/09/24 01:17:28;;;;;;;6.27;5.23;;;10.90;99.90;;;;;;5263897;28;20437;-50
2022/09/24 01:20:17;;;;;;;8.13;5.70;;;10.90;99.90;;;;;;5263455;28;20459;-50
2022/09/24 01:22:56;;;;;;;5.67;5.17;;;10.90;99.90;;;;;;5238591;28;20900;-50
2022/09/24 01:25:58;;;;;;;11.70;5.97;;;10.90;99.90;;;;;;5270044;28;20431;-49
2022/09/24 01:28:29;;;;;;;7.17;5.00;;;10.90;99.90;;;;;;5263383;28;20950;-50
2022/09/24 01:31:15;;;;;;;7.70;6.30;;;10.90;99.90;;;;;;5271112;28;20458;-49
2022/09/24 01:33:48;;;;;;;5.87;5.27;;;10.90;99.90;;;;;;5263192;28;20219;-50
2022/09/24 01:36:20;;;;;;;7.00;5.10;;;10.90;99.90;;;;;;5253596;28;21265;-48
2022/09/24 01:38:53;;;;;;;6.47;5.80;;;11.00;99.90;;;;;;5253424;28;20459;-50
2022/09/24 01:41:24;;;;;;;6.67;4.60;;;11.00;99.90;;;;;;5248837;28;20428;-50
2022/09/24 01:43:57;;;;;;;8.27;5.83;;;11.00;99.90;;;;;;5248004;28;20756;-50
2022/09/24 01:46:28;;;;;;;5.30;4.80;;;11.00;99.90;;;;;;5253720;28;20265;-51
2022/09/24 01:48:59;;;;;;;5.80;5.30;;;11.00;99.90;;;;;;5278534;28;20543;-51
2022/09/24 01:51:48;;;;;;;10.63;5.73;;;11.00;99.90;;;;;;5233586;28;20283;-50
2022/09/24 01:54:26;;;;;;;8.10;4.87;;;11.00;99.90;;;;;;5248701;28;20179;-50
2022/09/24 01:57:21;;;;;;;5.70;5.07;;;11.00;99.90;;;;;;5252916;28;20473;-51
2022/09/24 02:00:02;;;;;;;5.97;5.53;;;11.00;99.90;;;;;;5256950;28;20455;-52
2022/09/24 02:02:55;;;;;;;6.10;5.50;;;11.00;99.90;;;;;;5266216;28;20423;-51
2022/09/24 02:05:40;;;;;;;5.40;4.90;;;11.00;99.90;;;;;;5266378;28;20439;-51
2022/09/24 02:08:21;;;;;;;6.40;5.40;;;11.00;99.90;;;;;;5269757;28;20975;-52
2022/09/24 02:11:01;;;;;;;10.83;6.30;;;11.00;99.90;;;;;;5252235;28;20443;-49
2022/09/24 02:13:38;;;;;;;7.70;5.30;;;11.00;99.90;;;;;;5266599;28;20416;-50
2022/09/24 02:16:13;;;;;;;6.10;5.60;;;11.00;99.90;;;;;;5252254;28;20466;-50
2022/09/24 02:18:52;;;;;;;14.93;5.30;;;11.00;99.90;;;;;;5245562;28;20469;-50
2022/09/24 02:21:24;;;;;;;5.67;5.17;;;11.00;99.90;;;;;;5262040;28;20510;-50
2022/09/24 02:24:06;;;;;;;4.50;4.30;;;11.00;99.90;;;;;;5269065;28;20818;-52
2022/09/24 02:26:37;;;;;;;7.10;5.53;;;11.00;99.90;;;;;;5255332;28;20424;-50
2022/09/24 02:29:07;;;;;;;5.50;5.10;;;11.00;99.90;;;;;;5250132;28;20462;-49
2022/09/24 02:31:45;;;;;;;8.63;5.37;;;11.00;99.90;;;;;;5241349;28;20620;-49
2022/09/24 02:34:21;;;;;;;6.40;5.20;;;11.00;99.90;;;;;;5252342;28;20703;-50
2022/09/24 02:36:58;;;;;;;7.47;5.70;;;11.10;99.90;;;;;;5265639;28;20794;-49
2022/09/24 02:39:28;;;;;;;6.67;5.97;;;11.00;99.90;;;;;;5260922;28;20450;-50
2022/09/24 02:42:01;;;;;;;6.17;5.57;;;11.00;99.90;;;;;;5247179;28;20959;-50
2022/09/24 02:44:35;;;;;;;5.60;5.20;;;11.00;99.90;;;;;;5251693;28;20717;-52
2022/09/24 02:47:06;;;;;;;8.73;5.20;;;11.00;99.90;;;;;;5264702;28;20439;-51
2022/09/24 02:49:36;;;;;;;6.20;5.60;;;11.00;99.90;;;;;;5241535;28;20721;-50
2022/09/24 02:52:07;;;;;;;6.30;5.73;;;11.00;99.90;;;;;;5264713;28;20467;-49
2022/09/24 02:54:38;;;;;;;6.53;5.63;;;11.00;99.90;;;;;;5260327;28;20170;-49
2022/09/24 02:57:08;;;;;;;5.23;4.83;;;11.00;99.90;;;;;;5259408;28;20583;-52
2022/09/24 02:59:39;;;;;;;7.90;5.77;;;10.90;99.90;;;;;;5268828;28;20205;-52
2022/09/24 03:02:10;;;;;;;7.90;6.37;;;10.90;99.90;;;;;;5248020;28;20182;-51
2022/09/24 03:04:40;;;;;;;9.37;6.30;;;10.90;99.90;;;;;;5239939;28;20242;-49
2022/09/24 03:07:13;;;;;;;6.50;5.90;;;10.90;99.90;;;;;;5269273;28;20252;-50
2022/09/24 03:09:43;;;;;;;8.97;5.30;;;10.90;99.90;;;;;;5239051;28;20247;-53
2022/09/24 03:12:14;;;;;;;6.60;5.00;;;10.90;99.90;;;;;;5268193;28;20436;-50
2022/09/24 03:14:45;;;;;;;5.87;5.23;;;10.90;99.90;;;;;;5264884;28;20316;-49
2022/09/24 03:17:15;;;;;;;5.73;5.33;;;10.90;99.90;;;;;;5266939;28;24084;-50
2022/09/24 03:19:46;;;;;;;5.67;5.13;;;10.90;99.90;;;;;;5270096;28;20351;-50
2022/09/24 03:22:16;;;;;;;6.40;5.43;;;11.00;99.90;;;;;;5267129;28;20185;-50
2022/09/24 03:24:47;;;;;;;6.47;5.90;;;11.00;99.90;;;;;;5269031;28;20184;-49
2022/09/24 03:27:17;;;;;;;6.63;5.93;;;10.90;99.90;;;;;;5261989;28;20653;-49
2022/09/24 03:32:38;;;;;;;4.60;4.20;;;10.90;99.90;;;;;;5264510;28;20323;-51
2022/09/24 03:35:10;;;;;;;7.53;5.93;;;10.90;99.90;;;;;;5266563;28;20558;-53
2022/09/24 03:37:42;;;;;;;6.07;5.50;;;10.90;99.90;;;;;;5267249;28;20188;-52
2022/09/24 03:40:12;;;;;;;6.07;5.53;;;10.90;99.90;;;;;;5266733;28;20452;-50
2022/09/24 03:42:43;;;;;;;6.47;5.83;;;10.90;99.90;;;;;;5242827;28;20440;-52
2022/09/24 03:45:13;;;;;;;6.50;5.90;;;10.90;99.90;;;;;;5239887;28;20189;-51
2022/09/24 03:47:44;;;;;;;6.67;5.93;;;10.80;99.90;;;;;;5266965;28;20188;-52
2022/09/24 03:50:15;;;;;;;6.73;5.70;;;10.90;99.90;;;;;;5267084;28;20205;-52
2022/09/24 03:52:45;;;;;;;9.70;5.60;;;10.80;99.90;;;;;;5240005;28;20228;-51
2022/09/24 03:55:16;;;;;;;6.23;5.70;;;10.80;99.90;;;;;;5250815;28;20212;-51
2022/09/24 03:57:46;;;;;;;5.77;5.20;;;10.80;99.90;;;;;;5264307;28;20181;-52
2022/09/24 04:00:17;;;;;;;6.97;5.60;;;10.80;99.90;;;;;;5246723;28;20201;-52
2022/09/24 04:02:49;;;;;;;6.70;5.67;;;10.70;99.90;;;;;;5257306;28;20194;-51
2022/09/24 04:05:20;;;;;;;7.17;6.40;;;10.70;99.90;;;;;;5266024;28;20176;-52
2022/09/24 04:07:51;;;;;;;9.20;6.60;;;10.70;99.90;;;;;;5265497;28;20489;-51
2022/09/24 04:10:23;;;;;;;8.33;6.10;;;10.70;99.90;;;;;;5263740;28;20754;-51
2022/09/24 04:12:54;;;;;;;7.50;5.90;;;10.70;99.90;;;;;;5262942;28;20185;-51
2022/09/24 04:15:24;;;;;;;6.60;5.93;;;10.70;99.90;;;;;;5251569;28;20504;-51
2022/09/24 04:17:57;;;;;;;7.90;6.43;;;10.70;99.90;;;;;;5246889;28;20178;-51
2022/09/24 04:20:29;;;;;;;6.53;5.73;;;10.60;99.90;;;;;;5247616;28;20300;-52
2022/09/24 04:23:00;;;;;;;9.03;6.50;;;10.60;99.90;;;;;;5266382;28;20427;-52
2022/09/24 04:25:31;;;;;;;7.40;5.90;;;10.60;99.90;;;;;;5249829;28;20424;-51
2022/09/24 04:28:04;;;;;;;5.93;5.60;;;10.60;99.90;;;;;;5260442;28;20436;-51
2022/09/24 04:30:35;;;;;;;7.17;6.47;;;10.60;99.90;;;;;;5248474;28;20452;-52
2022/09/24 04:33:06;;;;;;;8.00;6.10;;;10.50;99.90;;;;;;5259360;28;20777;-52
2022/09/24 04:35:37;;;;;;;7.37;5.30;;;10.60;99.90;;;;;;5242972;28;20547;-51
2022/09/24 04:38:07;;;;;;;6.87;6.13;;;10.50;99.90;;;;;;5247141;28;20174;-51
2022/09/24 04:40:38;;;;;;;6.93;5.83;;;10.50;99.90;;;;;;5252160;28;20642;-53
2022/09/24 04:43:09;;;;;;;5.50;5.10;;;10.50;99.90;;;;;;5263327;28;20638;-50
2022/09/24 04:45:42;;;;;;;12.30;6.97;;;10.50;99.90;;;;;;5268416;28;20808;-52
2022/09/24 04:48:13;;;;;;;7.03;6.33;;;10.50;99.90;;;;;;5250476;28;20181;-51
2022/09/24 04:50:44;;;;;;;6.60;5.80;;;10.50;99.90;;;;;;5269864;28;20792;-51
2022/09/24 04:53:14;;;;;;;7.87;5.40;;;10.50;99.90;;;;;;5272370;28;20813;-53
2022/09/24 04:55:46;;;;;;;6.80;6.10;;;10.50;99.90;;;;;;5253399;28;20456;-51
2022/09/24 04:58:16;;;;;;;11.53;7.73;;;10.50;99.90;;;;;;5267348;28;20303;-52
2022/09/24 05:00:47;;;;;;;10.50;6.13;;;10.50;99.90;;;;;;5252630;28;20982;-53
2022/09/24 05:03:21;;;;;;;6.63;5.10;;;10.60;99.90;;;;;;5257114;28;20208;-52
2022/09/24 05:05:51;;;;;;;8.90;5.50;;;10.60;99.90;;;;;;5259989;28;20877;-52
2022/09/24 05:08:22;;;;;;;11.90;5.50;;;10.60;99.90;;;;;;5262265;28;20495;-52
2022/09/24 05:10:53;;;;;;;10.13;5.73;;;10.60;99.90;;;;;;5252454;28;20197;-53
2022/09/24 05:13:23;;;;;;;5.70;5.30;;;10.60;99.90;;;;;;5271320;28;20188;-51
2022/09/24 05:15:54;;;;;;;5.90;5.30;;;10.60;99.90;;;;;;5264080;28;20262;-50
2022/09/24 05:18:25;;;;;;;7.00;6.30;;;10.60;99.90;;;;;;5263960;28;20252;-52
2022/09/24 05:20:56;;;;;;;6.57;6.10;;;10.60;99.90;;;;;;5269002;28;20181;-52
2022/09/24 05:23:26;;;;;;;7.80;6.70;;;10.60;99.90;;;;;;5255731;28;20796;-52
2022/09/24 05:28:46;;;;;;;12.50;6.00;;;10.50;99.90;;;;;;5271092;28;20271;-52
2022/09/24 05:31:17;;;;;;;10.63;6.73;;;10.50;99.90;;;;;;5262714;28;20791;-52
2022/09/24 05:33:48;;;;;;;13.90;6.47;;;10.50;99.90;;;;;;5263115;28;20693;-53
2022/09/24 05:36:18;;;;;;;6.77;6.20;;;10.50;99.90;;;;;;5254212;28;20551;-52
2022/09/24 05:38:49;;;;;;;5.63;5.20;;;10.60;99.90;;;;;;5252279;28;20467;-51
2022/09/24 05:41:20;;;;;;;12.67;5.87;;;10.60;99.90;;;;;;5253803;28;20644;-52
2022/09/24 05:43:51;;;;;;;6.63;5.93;;;10.60;99.90;;;;;;5251753;28;21902;-51
2022/09/24 05:46:21;;;;;;;6.40;5.80;;;10.60;99.90;;;;;;5247541;28;20435;-52
2022/09/24 05:48:52;;;;;;;10.80;6.47;;;10.50;99.90;;;;;;5266700;28;20222;-51
2022/09/24 05:51:22;;;;;;;11.80;6.50;;;10.60;99.90;;;;;;5259713;28;20192;-51
2022/09/24 05:53:53;;;;;;;9.17;6.40;;;10.60;99.90;;;;;;5268357;28;20553;-52
2022/09/24 05:56:23;;;;;;;7.73;5.30;;;10.70;99.90;;;;;;5267009;28;20909;-54
2022/09/24 05:58:54;;;;;;;7.13;6.50;;;10.70;99.90;;;;;;5262372;28;20209;-52
2022/09/24 06:01:28;;;;;;;6.73;5.30;;;10.80;99.90;;;;;;5249857;28;20335;-52
2022/09/24 06:03:59;;;;;;;5.93;5.37;;;10.80;99.90;;;;;;5262270;28;20656;-51
2022/09/24 06:06:30;;;;;;;13.53;7.23;;;10.80;99.90;;;;;;5261631;28;20441;-52
2022/09/24 06:09:00;;;;;;;6.30;5.80;;;10.80;99.90;;;;;;5263779;28;20284;-50
2022/09/24 06:11:34;;;;;;;9.37;6.13;;;10.80;99.90;;;;;;5243155;28;20193;-51
2022/09/24 06:14:04;;;;;;;5.63;5.13;;;10.80;99.90;;;;;;5244306;28;20330;-51
2022/09/24 06:16:35;;;;;;;6.43;5.90;;;10.80;99.90;;;;;;5258432;28;20896;-52
2022/09/24 06:19:06;;;;;;;7.97;6.10;;;10.80;99.90;;;;;;5244747;28;20194;-53
2022/09/24 06:21:36;;;;;;;10.67;6.40;;;10.80;99.90;;;;;;5266007;28;20612;-53
2022/09/24 06:24:07;;;;;;;7.40;6.50;;;10.80;99.90;;;;;;5270501;28;20304;-53
2022/09/24 06:26:37;;;;;;;7.87;5.80;;;10.90;99.90;;;;;;5267063;28;20855;-53
2022/09/24 06:29:08;;;;;;;7.20;5.20;;;11.00;99.90;;;;;;5242674;28;20220;-52
2022/09/24 06:31:39;;;;;;;8.43;6.07;;;11.10;99.90;;;;;;5244950;28;20203;-54
2022/09/24 06:34:09;;;;;;;6.07;5.47;;;11.20;99.90;;;;;;5248390;28;20271;-52
2022/09/24 06:36:40;;;;;;;11.47;5.80;;;11.20;99.90;;;;;;5252425;28;20558;-53
2022/09/24 06:39:10;;;;;;;7.50;6.30;;;11.30;99.90;;;;;;5273136;28;20205;-52
2022/09/24 06:41:41;;;;;;;7.10;5.80;;;11.30;99.90;;;;;;5269923;28;20684;-52
2022/09/24 06:44:12;;;;;;;7.83;5.77;;;11.40;99.90;;;;;;5274065;28;20185;-52
2022/09/24 06:46:42;;;;;;;9.40;6.97;;;11.40;99.90;;;;;;5265059;28;20189;-52
2022/09/24 06:49:13;;;;;;;8.73;6.00;;;11.50;99.90;;;;;;5261602;28;20271;-53
2022/09/24 06:51:44;;;;;;;6.53;5.93;;;11.50;99.90;;;;;;5273229;28;20188;-52
2022/09/24 06:54:15;;;;;;;7.37;6.67;;;11.70;99.90;;;;;;5242218;28;20509;-51
2022/09/24 06:56:45;;;;;;;6.83;5.37;;;11.70;99.90;;;;;;5244960;28;20498;-52
2022/09/24 06:59:16;;;;;;;7.17;6.40;;;11.80;99.90;;;;;;5250205;28;20228;-52
2022/09/24 07:01:46;;;;;;;12.10;5.97;;;11.90;99.90;;;;;;5262679;28;20225;-53
2022/09/24 07:04:17;;;;;;;6.20;5.60;;;11.90;99.90;;;;;;5262634;28;20189;-52
2022/09/24 07:09:39;;;;;;;13.13;5.60;;;11.90;99.90;;;;;;5261820;28;21224;-54
2022/09/24 07:12:10;;;;;;;6.33;5.83;;;12.00;99.90;;;;;;5261328;28;20465;-53
2022/09/24 07:14:40;;;;;;;8.13;5.80;;;12.10;99.90;;;;;;5263243;28;20428;-52
2022/09/24 07:17:11;;;;;;;6.37;5.67;;;12.00;99.90;;;;;;5256595;28;20532;-51
2022/09/24 07:19:42;;;;;;;6.63;5.93;;;12.00;99.90;;;;;;5246636;28;20204;-52
2022/09/24 07:22:12;;;;;;;12.27;6.40;;;12.00;99.90;;;;;;5266943;28;20220;-51
2022/09/24 07:24:43;;;;;;;8.20;6.13;;;12.10;99.90;;;;;;5269025;28;20174;-51
2022/09/24 07:27:14;;;;;;;6.13;5.63;;;12.10;99.90;;;;;;5251637;28;20173;-53
2022/09/24 07:29:44;;;;;;;12.20;6.47;;;12.20;99.90;;;;;;5259181;28;20213;-53
2022/09/24 07:32:16;;;;;;;7.13;6.10;;;12.20;99.90;;;;;;5244480;28;20190;-52
2022/09/24 07:34:47;;;;;;;8.43;6.37;;;12.20;99.90;;;;;;5260119;28;20171;-52
2022/09/24 07:37:18;;;;;;;6.50;5.80;;;12.30;99.90;;;;;;5259946;28;20423;-52
2022/09/24 07:39:48;;;;;;;9.33;6.83;;;12.40;99.90;;;;;;5248180;28;20463;-52
2022/09/24 07:42:20;;;;;;;10.33;6.10;;;12.50;99.90;;;;;;5259934;28;20198;-51
2022/09/24 07:44:51;;;;;;;7.50;6.13;;;12.60;99.90;;;;;;5257025;28;20227;-51
2022/09/24 07:47:22;;;;;;;8.97;6.47;;;12.70;99.90;;;;;;5262113;28;20939;-52
2022/09/24 07:49:52;;;;;;;8.30;7.07;;;12.90;99.90;;;;;;5261712;28;20309;-53
2022/09/24 07:52:23;;;;;;;5.70;4.90;;;13.10;99.90;;;;;;5246107;28;20170;-51
2022/09/24 07:54:54;;;;;;;6.50;6.00;;;13.30;99.90;;;;;;5245394;28;20269;-54
2022/09/24 07:57:26;;;;;;;11.17;6.50;;;13.60;99.90;;;;;;5241944;28;20593;-53
2022/09/24 07:59:56;;;;;;;11.80;6.50;;;13.70;99.90;;;;;;5244152;28;20451;-57
2022/09/24 08:02:27;;;;;;;12.13;6.80;;;13.70;99.90;;;;;;5261873;28;20482;-51
2022/09/24 08:04:57;;;;;;;6.63;6.03;;;13.60;99.90;;;;;;5257569;28;21194;-51
2022/09/24 08:07:28;;;;;;;11.17;7.40;;;13.50;99.90;;;;;;5247300;28;20230;-54
2022/09/24 08:10:00;;;;;;;10.73;7.30;;;13.40;99.90;;;;;;5264480;28;20205;-51
2022/09/24 08:12:31;;;;;;;9.97;6.83;;;13.40;99.90;;;;;;5248710;28;20177;-51
2022/09/24 08:15:01;;;;;;;9.80;5.80;;;13.40;99.90;;;;;;5263905;28;22415;-51
2022/09/24 08:17:32;;;;;;;10.03;6.20;;;13.40;99.90;;;;;;5264604;28;20580;-52
2022/09/24 08:20:03;;;;;;;6.80;6.20;;;13.40;99.90;;;;;;5239296;28;21401;-52
2022/09/24 08:22:35;;;;;;;7.80;5.60;;;13.50;99.90;;;;;;5265042;28;20216;-53
2022/09/24 08:25:06;;;;;;;7.53;6.73;;;13.70;99.90;;;;;;5259758;28;20198;-52
2022/09/24 08:27:37;;;;;;;13.27;6.57;;;13.80;99.90;;;;;;5243819;28;20468;-54
2022/09/24 08:30:08;;;;;;;6.80;6.20;;;13.90;99.90;;;;;;5259272;28;20471;-53
2022/09/24 08:32:39;;;;;;;9.80;6.90;;;13.90;99.90;;;;;;5255746;28;20468;-53
2022/09/24 08:35:10;;;;;;;10.77;7.10;;;13.90;99.90;;;;;;5245522;28;20471;-53
2022/09/24 08:37:40;;;;;;;6.17;5.57;;;14.00;99.90;;;;;;5262948;28;20211;-52
2022/09/24 08:40:21;;;;;;;8.57;6.53;;;14.10;99.90;;;;;;5259753;28;20689;-53
2022/09/24 08:43:05;;;;;;;10.47;6.20;;;14.40;99.90;;;;;;5262282;28;20197;-52
2022/09/24 08:48:41;;;;;;;5.93;5.40;;;14.70;99.90;;;;;;5261089;28;20884;-53
2022/09/24 08:51:16;;;;;;;6.63;6.00;;;14.90;99.90;;;;;;5258538;28;20958;-51
2022/09/24 08:54:03;;;;;;;7.30;6.60;;;15.10;99.90;;;;;;5268327;28;20415;-51
2022/09/24 08:56:37;;;;;;;6.33;5.57;;;15.20;99.90;;;;;;5246372;28;20577;-52
2022/09/24 08:59:30;;;;;;;7.37;6.63;;;15.30;99.90;;;;;;5260383;28;20539;-52
2022/09/24 09:02:20;;;;;;;6.80;6.13;;;15.30;99.90;;;;;;5265979;28;21032;-53
2022/09/24 09:05:12;;;;;;;8.10;6.17;;;15.20;99.90;;;;;;5242828;28;20899;-52
2022/09/24 09:08:33;;;;;;;13.80;6.93;;;15.30;99.90;;;;;;5257870;28;20435;-53
2022/09/24 09:11:08;;;;;;;10.00;6.90;;;15.10;99.90;;;;;;5244287;28;20440;-54
2022/09/24 09:13:43;;;;;;;9.03;6.10;;;15.10;99.90;;;;;;5235678;28;20428;-53
2022/09/24 09:16:16;;;;;;;8.93;6.53;;;15.10;99.90;;;;;;5258152;28;20539;-52
2022/09/24 09:18:49;;;;;;;9.30;6.40;;;15.30;99.90;;;;;;5260438;28;20574;-52
2022/09/24 09:21:40;;;;;;;12.23;7.03;;;15.20;99.90;;;;;;5258782;28;20431;-50
2022/09/24 09:24:17;;;;;;;6.50;6.00;;;15.20;99.90;;;;;;5250973;28;20436;-51
2022/09/24 09:26:50;;;;;;;6.73;6.13;;;15.40;99.90;;;;;;5243801;28;20989;-50
2022/09/24 09:29:26;;;;;;;11.10;7.00;;;15.60;99.90;;;;;;5270617;22;20520;-51
2022/09/24 09:32:10;;;;;;;6.90;6.17;;;15.80;99.90;;;;;;5236219;28;20455;-53
2022/09/24 09:35:02;;;;;;;8.80;7.23;;;16.00;99.90;;;;;;5243630;28;20504;-54
2022/09/24 09:38:11;;;;;;;7.53;6.57;;;16.10;99.90;;;;;;5244401;28;21017;-51
2022/09/24 09:41:01;;;;;;;6.20;5.67;;;16.10;99.90;;;;;;5244687;28;20470;-49
2022/09/24 09:43:32;;;;;;;8.37;7.57;;;15.90;99.90;;;;;;5242321;28;20436;-49
2022/09/24 09:46:17;;;;;;;8.53;6.23;;;15.90;99.90;;;;;;5246441;28;20436;-50
2022/09/24 09:48:53;;;;;;;7.50;6.80;;;15.80;99.90;;;;;;5240767;28;20661;-49
2022/09/24 09:51:25;;;;;;;6.77;6.17;;;15.80;99.90;;;;;;5243579;28;20431;-48
2022/09/24 09:53:58;;;;;;;8.80;6.40;;;15.70;99.90;;;;;;5240348;28;20468;-50
2022/09/24 09:56:33;;;;;;;7.97;5.90;;;15.70;99.90;;;;;;5238476;28;20552;-54
2022/09/24 09:59:12;;;;;;;7.53;6.03;;;15.70;99.90;;;;;;5241817;28;20441;-50
2022/09/24 10:01:46;;;;;;;13.10;6.43;;;15.80;99.50;;;;;;5235261;28;20451;-52
2022/09/24 10:04:40;;;;;;;6.97;5.83;;;15.80;99.00;;;;;;5245945;28;20428;-52
2022/09/24 10:07:16;;;;;;;7.83;5.70;;;15.80;99.10;;;;;;5234858;28;20563;-52
2022/09/24 10:10:17;;;;;;;6.83;6.23;;;15.80;98.40;;;;;;5243602;28;20447;-53
2022/09/24 10:12:48;;;;;;;5.93;5.40;;;15.80;98.30;;;;;;5235587;28;20440;-49
2022/09/24 10:15:23;;;;;;;7.87;6.20;;;15.80;98.30;;;;;;5245265;28;20467;-52
2022/09/24 10:17:54;;;;;;;8.67;5.67;;;15.70;98.50;;;;;;5240884;28;20687;-52
2022/09/24 10:20:31;;;;;;;7.37;5.87;;;15.70;98.60;;;;;;5245098;28;20444;-51
2022/09/24 10:23:06;;;;;;;10.97;5.63;;;15.60;98.10;;;;;;5239359;28;20512;-51
2022/09/24 10:25:36;;;;;;;7.63;5.10;;;15.60;97.60;;;;;;5243828;28;20435;-51
2022/09/24 10:31:15;;;;;;;7.43;5.70;;;15.40;97.90;;;;;;5238604;28;20756;-52
2022/09/24 10:33:48;;;;;;;6.23;5.70;;;15.40;98.30;;;;;;5237961;28;20996;-53
2022/09/24 10:36:27;;;;;;;9.87;5.00;;;15.40;98.50;;;;;;5239153;28;20460;-53
2022/09/24 10:39:01;;;;;;;6.37;5.77;;;15.40;98.30;;;;;;5242416;28;20979;-52
2022/09/24 10:41:32;;;;;;;7.43;6.20;;;15.40;98.80;;;;;;5248764;28;20436;-53
2022/09/24 10:44:10;;;;;;;6.50;5.70;;;15.70;99.20;;;;;;5246970;28;20493;-50
2022/09/24 10:47:03;;;;;;;11.00;5.90;;;15.80;98.70;;;;;;5240207;28;20197;-52
2022/09/24 10:49:50;;;;;;;9.60;6.10;;;15.90;98.00;;;;;;5241865;28;20501;-52
2022/09/24 10:52:44;;;;;;;5.50;5.10;;;16.10;97.30;;;;;;5240253;28;20482;-53
2022/09/24 10:55:15;;;;;;;6.13;5.63;;;16.20;97.00;;;;;;5236932;28;20457;-51
2022/09/24 10:58:07;;;;;;;6.00;5.10;;;16.10;95.70;;;;;;5231528;28;20429;-49
2022/09/24 11:00:45;;;;;;;10.30;5.27;;;16.10;96.00;;;;;;5231914;28;20198;-49
2022/09/24 11:03:24;;;;;;;6.47;5.77;;;16.10;95.90;;;;;;5238863;28;20550;-51
2022/09/24 11:06:13;;;;;;;4.80;4.40;;;16.20;96.10;;;;;;5242972;28;20486;-48
2022/09/24 11:08:56;;;;;;;5.80;4.80;;;16.20;95.80;;;;;;5244071;28;20444;-47
2022/09/24 11:11:55;;;;;;;7.53;5.40;;;16.20;96.00;;;;;;5240254;28;20497;-49
2022/09/24 11:14:36;;;;;;;4.73;4.37;;;16.30;95.90;;;;;;5237355;28;20501;-50
2022/09/24 11:17:09;;;;;;;8.83;5.50;;;16.60;95.70;;;;;;5242513;28;20467;-49
2022/09/24 11:19:45;;;;;;;6.20;5.50;;;16.60;95.20;;;;;;5236884;28;21238;-48
2022/09/24 11:22:39;;;;;;;5.97;4.80;;;16.70;94.70;;;;;;5243444;28;20537;-49
2022/09/24 11:25:25;;;;;;;5.67;5.07;;;16.80;93.60;;;;;;5238874;28;20429;-47
2022/09/24 11:28:19;;;;;;;5.27;4.87;;;16.90;93.60;;;;;;5245426;28;20443;-47
2022/09/24 11:31:28;;;;;;;6.23;4.40;;;17.10;93.30;;;;;;5240378;28;20468;-50
2022/09/24 11:34:22;;;;;;;6.97;4.43;;;17.40;91.50;;;;;;5233513;28;20433;-48
2022/09/24 11:36:59;;;;;;;4.40;4.00;;;17.40;89.50;;;;;;5235303;28;20539;-47
2022/09/24 11:39:54;;;;;;;9.63;4.33;;;17.30;88.70;;;;;;5242915;28;20978;-48
2022/09/24 11:42:36;;;;;;;5.10;4.07;;;17.20;88.50;;;;;;5245022;28;20469;-48
2022/09/24 11:45:41;;;;;;;4.77;4.40;;;17.30;88.40;;;;;;5238362;28;20458;-49
2022/09/24 11:48:25;;;;;;;5.70;5.20;;;17.30;88.30;;;;;;5236123;28;20428;-49
2022/09/24 11:51:13;;;;;;;5.07;4.67;;;17.30;86.00;;;;;;5258230;28;20499;-50
2022/09/24 11:53:51;;;;;;;6.63;4.60;;;17.40;86.50;;;;;;5244037;28;20442;-48
2022/09/24 11:56:46;;;;;;;4.53;4.13;;;17.50;84.80;;;;;;5247353;28;20459;-51
2022/09/24 11:59:33;;;;;;;4.60;4.20;;;17.60;85.80;;;;;;5244741;28;21037;-48
2022/09/24 12:02:26;;;;;;;5.03;4.63;;;17.70;85.10;;;;;;5248194;28;20440;-48
2022/09/24 12:05:08;;;;;;;6.70;4.50;;;17.90;83.30;;;;;;5241467;28;20527;-47
2022/09/24 12:07:48;;;;;;;6.80;5.27;;;18.20;83.40;;;;;;5242142;28;20912;-53
2022/09/24 12:10:44;;;;;;;6.00;4.13;;;18.40;82.30;;;;;;5242644;28;20471;-48
2022/09/24 12:13:26;;;;;;;6.07;4.17;;;18.50;80.90;;;;;;5237107;28;20429;-48
2022/09/24 12:16:01;;;;;;;4.10;3.70;;;18.60;78.90;;;;;;5246392;28;20461;-50
2022/09/24 12:18:39;;;;;;;4.20;3.27;;;18.60;78.60;;;;;;5229285;28;20467;-50
2022/09/24 12:21:15;;;;;;;3.93;3.63;;;18.40;78.70;;;;;;5244267;28;20450;-47
2022/09/24 12:23:47;;;;;;;4.83;4.30;;;18.30;79.00;;;;;;5246898;28;20535;-48
2022/09/24 12:26:20;;;;;;;10.47;4.23;;;18.20;80.40;;;;;;5243357;28;20930;-48
2022/09/24 12:35:27;;;;;;;3.60;3.30;;;17.70;86.20;;;;;;5241294;28;20548;-49
2022/09/24 12:38:09;;;;;;;5.03;4.53;;;17.60;88.80;;;;;;5249968;28;20521;-47
2022/09/24 12:41:07;;;;;;;6.20;4.77;;;17.60;90.50;;;;;;5241576;28;20516;-50
2022/09/24 12:44:06;;;;;;;6.17;5.30;;;17.50;91.70;;;;;;5238543;28;20432;-49
2022/09/24 12:46:58;;;;;;;5.23;4.73;;;17.30;92.10;;;;;;5243158;28;20448;-48
2022/09/24 12:49:35;;;;;;;4.20;3.90;;;17.10;92.30;;;;;;5245084;28;20496;-48
2022/09/24 12:52:16;;;;;;;6.27;4.17;;;17.00;92.30;;;;;;5238012;28;20457;-49
2022/09/24 12:55:01;;;;;;;4.17;3.93;;;17.00;92.20;;;;;;5247338;28;20436;-50
2022/09/24 12:57:40;;;;;;;4.53;4.20;;;17.00;91.80;;;;;;5236678;28;20437;-49
2022/09/24 13:00:35;;;;;;;4.90;4.60;;;17.00;91.10;;;;;;5246324;28;20478;-49
2022/09/24 13:03:33;;;;;;;4.80;4.30;;;17.10;91.50;;;;;;5243380;28;20443;-51
2022/09/24 13:06:30;;;;;;;7.80;4.20;;;17.30;91.00;;;;;;5241267;28;20440;-49
2022/09/24 13:09:02;;;;;;;6.73;3.83;;;17.50;90.80;;;;;;5238209;28;21020;-50
2022/09/24 13:11:36;;;;;;;7.97;5.20;;;17.70;90.60;;;;;;5241789;28;20455;-48
2022/09/24 13:14:14;;;;;;;5.30;4.93;;;17.90;90.60;;;;;;5237398;28;20903;-48
2022/09/24 13:16:48;;;;;;;5.40;4.73;;;17.90;88.70;;;;;;5243464;28;20464;-48
2022/09/24 13:19:32;;;;;;;4.83;4.43;;;17.80;89.60;;;;;;5244208;28;20455;-53
2022/09/24 13:22:04;;;;;;;4.20;3.97;;;17.90;89.90;;;;;;5245362;28;20432;-55
2022/09/24 13:24:48;;;;;;;7.53;5.47;;;18.10;89.60;;;;;;5244354;28;20583;-53
2022/09/24 13:27:36;;;;;;;20.23;4.83;;;17.90;88.90;;;;;;5249412;28;20507;-53
2022/09/24 13:30:40;;;;;;;6.70;4.67;;;17.70;90.00;;;;;;5246144;28;20887;-52
2022/09/24 13:33:32;;;;;;;8.20;4.27;;;17.50;88.40;;;;;;5210906;28;20809;-56
2022/09/24 13:36:12;;;;;;;13.17;4.67;;;17.30;90.00;;;;;;5244136;28;20846;-54
2022/09/24 13:38:54;;;;;;;4.97;4.57;;;17.30;89.80;;;;;;5239252;28;20755;-55
2022/09/24 13:41:49;;;;;;;5.37;4.83;;;17.30;90.30;;;;;;5242455;28;20505;-52
2022/09/24 13:44:26;;;;;;;11.20;5.20;;;17.20;90.10;;;;;;5242870;28;20934;-53
2022/09/24 13:47:11;;;;;;;4.60;4.20;;;17.20;90.60;;;;;;5243320;28;20502;-50
2022/09/24 13:49:46;;;;;;;7.07;5.63;;;17.20;90.20;;;;;;5238568;28;21149;-52
2022/09/24 13:52:53;;;;;;;5.83;5.33;;;17.10;90.60;;;;;;5239606;28;20447;-53
2022/09/24 13:55:37;;;;;;;4.70;4.30;;;17.10;90.30;;;;;;5230102;28;20968;-53
2022/09/24 13:58:26;;;;;;;4.10;3.70;;;17.10;90.30;;;;;;5248505;28;20494;-52